createdAt,value
2018-09-20T00:00:48.277Z,13.17
2018-09-20T00:03:17.193Z,11.73
2018-09-20T00:05:46.044Z,13.00
2018-09-20T00:08:14.987Z,14.30
2018-09-20T00:10:43.841Z,17.73
2018-09-20T00:13:12.758Z,13.33
2018-09-20T00:15:41.677Z,12.63
2018-09-20T00:18:10.572Z,13.90
2018-09-20T00:20:39.427Z,13.57
2018-09-20T00:23:08.280Z,13.10
2018-09-20T00:25:37.168Z,13.53
2018-09-20T00:28:06.089Z,12.63
2018-09-20T00:30:34.956Z,12.67
2018-09-20T00:33:03.856Z,14.00
2018-09-20T00:35:32.752Z,10.23
2018-09-20T00:38:01.637Z,10.27
2018-09-20T00:40:30.532Z,9.93
2018-09-20T00:42:59.408Z,13.50
2018-09-20T00:45:28.336Z,13.47
2018-09-20T00:47:57.176Z,11.87
2018-09-20T00:50:26.008Z,11.07
2018-09-20T00:52:54.925Z,10.67
2018-09-20T00:55:23.789Z,10.93
2018-09-20T00:57:52.720Z,12.87
2018-09-20T01:00:21.609Z,14.47
2018-09-20T01:02:50.512Z,9.57
2018-09-20T01:05:19.368Z,9.57
2018-09-20T01:07:48.269Z,9.93
2018-09-20T01:10:17.237Z,9.50
2018-09-20T01:12:46.081Z,10.80
2018-09-20T01:15:14.987Z,12.73
2018-09-20T01:17:43.869Z,15.23
2018-09-20T01:20:12.767Z,9.73
2018-09-20T01:22:41.721Z,9.60
2018-09-20T01:25:10.565Z,12.50
2018-09-20T01:27:40.120Z,12.63
2018-09-20T01:30:09.037Z,10.73
2018-09-20T01:32:37.948Z,10.03
2018-09-20T01:35:06.849Z,8.73
2018-09-20T01:37:35.764Z,12.27
2018-09-20T01:40:04.679Z,10.17
2018-09-20T01:42:33.729Z,9.87
2018-09-20T01:45:02.592Z,9.40
2018-09-20T01:47:31.524Z,9.20
2018-09-20T01:50:00.414Z,9.77
2018-09-20T01:52:29.301Z,12.20
2018-09-20T01:54:58.198Z,9.57
2018-09-20T01:57:27.077Z,8.87
2018-09-20T01:59:55.925Z,8.40
2018-09-20T02:02:24.833Z,8.10
2018-09-20T02:04:53.960Z,8.93
2018-09-20T02:07:22.873Z,9.50
2018-09-20T02:09:51.708Z,8.47
2018-09-20T02:12:20.736Z,8.20
2018-09-20T02:14:49.572Z,9.17
2018-09-20T02:17:18.448Z,8.83
2018-09-20T02:19:47.396Z,10.90
2018-09-20T02:22:16.292Z,10.20
2018-09-20T02:24:45.144Z,9.57
2018-09-20T02:27:14.068Z,10.27
2018-09-20T02:29:43.072Z,10.37
2018-09-20T02:32:11.935Z,8.97
2018-09-20T02:34:40.817Z,11.03
2018-09-20T02:37:09.692Z,8.70
2018-09-20T02:39:38.609Z,13.83
2018-09-20T02:42:07.668Z,9.33
2018-09-20T02:44:36.548Z,9.03
2018-09-20T02:47:05.512Z,8.77
2018-09-20T02:49:34.418Z,8.60
2018-09-20T02:52:03.270Z,10.30
2018-09-20T02:54:32.288Z,10.20
2018-09-20T02:57:01.145Z,10.50
2018-09-20T02:59:30.056Z,8.57
2018-09-20T03:01:59.009Z,9.07
2018-09-20T03:04:27.910Z,9.20
2018-09-20T03:06:56.792Z,10.17
2018-09-20T03:09:26.084Z,8.80
2018-09-20T03:11:54.957Z,10.47
2018-09-20T03:14:23.829Z,8.90
2018-09-20T03:16:52.701Z,13.77
2018-09-20T03:19:21.582Z,8.83
2018-09-20T03:21:50.572Z,10.33
2018-09-20T03:24:19.448Z,13.53
2018-09-20T03:26:48.372Z,8.57
2018-09-20T03:29:17.323Z,12.47
2018-09-20T03:31:46.189Z,9.47
2018-09-20T03:34:15.089Z,8.50
2018-09-20T03:36:43.954Z,10.60
2018-09-20T03:39:13.045Z,10.47
2018-09-20T03:41:42.107Z,10.10
2018-09-20T03:44:10.971Z,9.80
2018-09-20T03:46:39.876Z,11.97
2018-09-20T03:49:08.756Z,13.03
2018-09-20T03:51:37.627Z,12.37
2018-09-20T03:54:06.625Z,10.93
2018-09-20T03:56:35.489Z,8.77
2018-09-20T03:59:04.449Z,14.47
2018-09-20T04:01:33.325Z,11.00
2018-09-20T04:04:02.272Z,10.77
2018-09-20T04:06:31.108Z,9.50
2018-09-20T04:09:00.017Z,11.03
2018-09-20T04:11:28.873Z,10.23
2018-09-20T04:13:57.745Z,11.10
2018-09-20T04:16:26.589Z,12.77
2018-09-20T04:18:55.473Z,13.17
2018-09-20T04:21:29.981Z,10.30
2018-09-20T04:23:59.403Z,10.70
2018-09-20T04:26:28.697Z,9.73
2018-09-20T04:28:58.169Z,9.83
2018-09-20T04:31:27.714Z,13.23
2018-09-20T04:33:57.358Z,10.53
2018-09-20T04:36:26.517Z,10.50
2018-09-20T04:38:55.536Z,12.17
2018-09-20T04:41:24.456Z,12.67
2018-09-20T04:43:53.333Z,12.77
2018-09-20T04:46:22.312Z,8.97
2018-09-20T04:48:51.221Z,10.50
2018-09-20T04:51:20.829Z,13.90
2018-09-20T04:53:49.936Z,11.60
2018-09-20T04:56:18.877Z,13.67
2018-09-20T04:58:47.797Z,12.27
2018-09-20T05:01:16.648Z,11.80
2018-09-20T05:03:46.316Z,11.83
2018-09-20T05:06:15.273Z,17.43
2018-09-20T05:08:44.284Z,18.07
2018-09-20T05:11:13.200Z,17.23
2018-09-20T05:13:42.057Z,12.40
2018-09-20T05:16:11.044Z,16.77
2018-09-20T05:18:40.013Z,23.53
2018-09-20T05:21:09.044Z,22.57
2018-09-20T05:23:37.900Z,22.27
2018-09-20T05:26:07.023Z,22.23
2018-09-20T05:28:35.932Z,16.57
2018-09-20T05:31:05.491Z,10.70
2018-09-20T05:33:34.456Z,23.27
2018-09-20T05:36:03.329Z,24.80
2018-09-20T05:38:32.668Z,10.03
2018-09-20T05:41:01.680Z,11.70
2018-09-20T05:43:31.334Z,14.53
2018-09-20T05:46:00.162Z,21.30
2018-09-20T05:48:29.057Z,22.03
2018-09-20T05:50:58.057Z,23.33
2018-09-20T05:53:26.955Z,19.40
2018-09-20T05:55:55.884Z,16.40
2018-09-20T05:58:24.788Z,15.83
2018-09-20T06:00:53.704Z,18.10
2018-09-20T06:03:22.572Z,10.27
2018-09-20T06:05:51.610Z,11.27
2018-09-20T06:08:20.465Z,12.53
2018-09-20T06:10:49.593Z,11.20
2018-09-20T06:13:18.722Z,12.67
2018-09-20T06:15:47.749Z,12.20
2018-09-20T06:18:16.633Z,14.17
2018-09-20T06:20:45.545Z,10.97
2018-09-20T06:23:14.485Z,12.87
2018-09-20T06:25:43.388Z,15.33
2018-09-20T06:28:12.277Z,11.73
2018-09-20T06:30:41.863Z,13.87
2018-09-20T06:33:10.772Z,15.07
2018-09-20T06:35:39.792Z,12.63
2018-09-20T06:38:08.733Z,12.17
2018-09-20T06:40:37.646Z,12.80
2018-09-20T06:43:06.662Z,11.83
2018-09-20T06:45:35.541Z,13.23
2018-09-20T06:48:04.549Z,13.43
2018-09-20T06:50:33.574Z,11.73
2018-09-20T06:53:02.497Z,13.10
2018-09-20T06:55:31.405Z,12.17
2018-09-20T06:58:00.372Z,14.87
2018-09-20T07:00:29.250Z,12.17
2018-09-20T07:02:58.185Z,16.77
2018-09-20T07:05:27.115Z,11.27
2018-09-20T07:07:56.037Z,14.30
2018-09-20T07:10:24.974Z,13.23
2018-09-20T07:12:53.809Z,13.20
2018-09-20T07:15:22.704Z,10.60
2018-09-20T07:17:51.744Z,11.30
2018-09-20T07:20:20.632Z,15.90
2018-09-20T07:22:49.551Z,11.13
2018-09-20T07:25:18.581Z,14.53
2018-09-20T07:27:47.424Z,11.07
2018-09-20T07:30:16.381Z,13.17
2018-09-20T07:32:45.270Z,13.00
2018-09-20T07:35:14.193Z,10.93
2018-09-20T07:37:43.093Z,13.30
2018-09-20T07:40:11.981Z,13.40
2018-09-20T07:42:40.904Z,12.77
2018-09-20T07:45:09.832Z,12.33
2018-09-20T07:47:38.748Z,10.63
2018-09-20T07:50:07.770Z,12.20
2018-09-20T07:52:36.673Z,11.70
2018-09-20T07:55:05.662Z,10.90
2018-09-20T07:57:34.550Z,10.27
2018-09-20T08:00:03.764Z,9.87
2018-09-20T08:02:32.661Z,11.87
2018-09-20T08:05:01.556Z,10.03
2018-09-20T08:07:30.756Z,9.37
2018-09-20T08:09:59.680Z,11.17
2018-09-20T08:12:28.608Z,9.97
2018-09-20T08:14:57.569Z,10.57
2018-09-20T08:17:26.433Z,8.97
2018-09-20T08:19:55.593Z,14.13
2018-09-20T08:22:24.497Z,13.10
2018-09-20T08:24:53.362Z,11.83
2018-09-20T08:27:22.283Z,8.50
2018-09-20T08:29:51.456Z,10.40
2018-09-20T08:32:20.417Z,9.63
2018-09-20T08:34:49.312Z,11.87
2018-09-20T08:37:18.445Z,9.07
2018-09-20T08:39:47.171Z,8.70
2018-09-20T08:42:16.109Z,10.10
2018-09-20T08:44:45.030Z,11.27
2018-09-20T08:47:13.992Z,9.13
2018-09-20T08:49:42.974Z,8.90
2018-09-20T08:52:11.851Z,8.30
2018-09-20T08:54:40.737Z,8.27
2018-09-20T08:57:09.709Z,8.00
2018-09-20T08:59:38.621Z,8.33
2018-09-20T09:02:08.771Z,8.77
2018-09-20T09:04:37.712Z,8.97
2018-09-20T09:07:07.749Z,10.73
2018-09-20T09:09:37.959Z,10.40
2018-09-20T09:12:07.445Z,9.57
2018-09-20T09:14:36.348Z,9.17
2018-09-20T09:17:07.624Z,9.13
2018-09-20T09:19:36.940Z,9.23
2018-09-20T09:22:07.368Z,8.23
2018-09-20T09:24:36.246Z,8.13
2018-09-20T09:27:07.459Z,8.80
2018-09-20T09:29:36.471Z,8.00
2018-09-20T09:32:07.756Z,7.43
2018-09-20T09:34:36.656Z,7.27
2018-09-20T09:37:07.649Z,7.70
2018-09-20T09:39:36.696Z,7.57
2018-09-20T09:42:07.778Z,7.92
2018-09-20T09:44:36.608Z,7.33
2018-09-20T09:47:07.863Z,8.37
2018-09-20T09:49:36.756Z,7.80
2018-09-20T09:52:08.648Z,7.33
2018-09-20T09:54:37.919Z,7.97
2018-09-20T09:57:08.072Z,7.12
2018-09-20T09:59:37.035Z,7.85
2018-09-20T10:02:06.025Z,9.28
2018-09-20T10:04:34.849Z,8.25
2018-09-20T10:07:03.805Z,9.00
2018-09-20T10:09:32.680Z,7.62
2018-09-20T10:12:01.540Z,6.53
2018-09-20T10:14:30.420Z,8.60
2018-09-20T10:16:59.285Z,7.35
2018-09-20T10:19:28.245Z,8.88
2018-09-20T10:21:57.152Z,8.35
2018-09-20T10:24:26.076Z,7.97
2018-09-20T10:26:54.997Z,6.78
2018-09-20T10:29:23.913Z,7.87
2018-09-20T10:31:52.787Z,7.53
2018-09-20T10:34:21.726Z,7.10
2018-09-20T10:36:50.589Z,7.95
2018-09-20T10:39:19.533Z,11.15
2018-09-20T10:41:48.445Z,7.20
2018-09-20T10:44:17.296Z,10.13
2018-09-20T10:46:47.292Z,7.55
2018-09-20T10:49:16.205Z,9.70
2018-09-20T10:51:45.177Z,8.80
2018-09-20T10:54:14.243Z,7.55
2018-09-20T10:56:43.117Z,7.28
2018-09-20T10:59:12.101Z,9.03
2018-09-20T11:01:41.065Z,7.55
2018-09-20T11:04:10.153Z,7.33
2018-09-20T11:06:39.154Z,7.58
2018-09-20T11:09:09.456Z,7.08
2018-09-20T11:11:38.427Z,7.40
2018-09-20T11:14:07.342Z,8.33
2018-09-20T11:16:36.915Z,7.15
2018-09-20T11:19:05.869Z,7.30
2018-09-20T11:21:34.956Z,6.00
2018-09-20T11:24:03.913Z,6.35
2018-09-20T11:26:33.000Z,8.00
2018-09-20T11:29:01.916Z,7.25
2018-09-20T11:31:30.872Z,7.85
2018-09-20T11:33:59.753Z,5.08
2018-09-20T11:36:28.688Z,5.85
2018-09-20T11:38:57.562Z,6.90
2018-09-20T11:41:26.452Z,5.60
2018-09-20T11:43:55.345Z,6.60
2018-09-20T11:46:24.297Z,5.70
2018-09-20T11:48:53.312Z,5.40
2018-09-20T11:51:22.195Z,5.50
2018-09-20T11:53:51.088Z,6.05
2018-09-20T11:56:20.173Z,5.80
2018-09-20T11:58:49.113Z,5.33
2018-09-20T12:01:18.063Z,6.20
2018-09-20T12:03:46.988Z,6.00
2018-09-20T12:06:15.945Z,5.50
2018-09-20T12:08:44.897Z,5.95
2018-09-20T12:11:13.818Z,8.00
2018-09-20T12:13:42.738Z,6.20
2018-09-20T12:16:11.633Z,5.92
2018-09-20T12:18:40.577Z,6.00
2018-09-20T12:21:09.445Z,7.12
2018-09-20T12:23:38.423Z,6.35
2018-09-20T12:26:07.441Z,5.47
2018-09-20T12:28:36.378Z,6.35
2018-09-20T12:31:05.506Z,5.40
2018-09-20T12:33:34.380Z,5.00
2018-09-20T12:36:03.433Z,5.55
2018-09-20T12:38:32.330Z,5.95
2018-09-20T12:41:01.255Z,5.70
2018-09-20T12:43:30.295Z,5.72
2018-09-20T12:45:59.368Z,5.40
2018-09-20T12:48:28.294Z,4.92
2018-09-20T12:50:57.480Z,5.65
2018-09-20T12:53:26.425Z,7.60
2018-09-20T12:55:55.341Z,5.83
2018-09-20T12:58:55.910Z,5.62
2018-09-20T13:01:24.836Z,6.35
2018-09-20T13:03:53.804Z,5.53
2018-09-20T13:06:23.668Z,5.53
2018-09-20T13:08:52.650Z,5.37
2018-09-20T13:11:21.640Z,5.30
2018-09-20T13:13:50.744Z,5.33
2018-09-20T13:16:21.167Z,5.45
2018-09-20T13:18:50.180Z,5.53
2018-09-20T13:21:19.843Z,5.22
2018-09-20T13:23:49.226Z,5.90
2018-09-20T13:26:18.139Z,6.08
2018-09-20T13:28:47.472Z,8.23
2018-09-20T13:31:16.785Z,6.70
2018-09-20T13:33:49.619Z,6.65
2018-09-20T13:36:19.333Z,6.10
2018-09-20T13:38:48.309Z,5.67
2018-09-20T13:41:17.225Z,7.12
2018-09-20T13:43:46.883Z,5.85
2018-09-20T13:46:16.044Z,7.97
2018-09-20T13:48:45.518Z,6.28
2018-09-20T13:51:14.822Z,6.42
2018-09-20T13:53:44.057Z,5.55
2018-09-20T13:56:13.454Z,6.03
2018-09-20T13:58:46.783Z,4.65
2018-09-20T14:01:15.952Z,5.40
2018-09-20T14:03:45.117Z,5.92
2018-09-20T14:06:14.761Z,6.30
2018-09-20T14:08:43.860Z,5.10
2018-09-20T14:11:13.993Z,5.10
2018-09-20T14:13:43.432Z,4.75
2018-09-20T14:16:13.132Z,4.50
2018-09-20T14:18:42.373Z,6.10
2018-09-20T14:21:12.300Z,4.87
2018-09-20T14:23:41.595Z,5.47
2018-09-20T14:26:10.863Z,6.47
2018-09-20T14:29:11.849Z,5.35
2018-09-20T14:31:41.735Z,4.37
2018-09-20T14:34:11.182Z,5.92
2018-09-20T14:36:40.310Z,4.60
2018-09-20T14:39:11.044Z,4.55
2018-09-20T14:41:40.263Z,4.30
2018-09-20T14:44:09.272Z,5.00
2018-09-20T14:46:38.378Z,4.40
2018-09-20T14:49:07.777Z,4.70
2018-09-20T14:51:37.377Z,4.37
2018-09-20T14:54:06.351Z,4.53
2018-09-20T14:56:35.318Z,6.22
2018-09-20T14:59:04.230Z,4.72
2018-09-20T15:01:33.244Z,5.80
2018-09-20T15:04:02.326Z,4.50
2018-09-20T15:06:31.344Z,4.12
2018-09-20T15:09:00.450Z,4.28
2018-09-20T15:11:30.178Z,4.70
2018-09-20T15:13:59.120Z,5.58
2018-09-20T15:16:27.996Z,6.80
2018-09-20T15:18:56.886Z,4.83
2018-09-20T15:21:25.773Z,4.85
2018-09-20T15:23:54.728Z,5.30
2018-09-20T15:26:23.872Z,5.55
2018-09-20T15:28:53.122Z,5.37
2018-09-20T15:31:22.326Z,5.08
2018-09-20T15:34:01.551Z,8.60
2018-09-20T15:36:30.738Z,5.70
2018-09-20T15:38:59.656Z,8.45
2018-09-20T15:41:28.575Z,6.92
2018-09-20T15:43:57.461Z,5.67
2018-09-20T15:46:26.379Z,5.12
2018-09-20T15:48:55.325Z,7.20
2018-09-20T15:51:24.284Z,7.33
2018-09-20T15:53:53.201Z,6.42
2018-09-20T15:56:22.108Z,5.58
2018-09-20T15:58:51.029Z,5.55
2018-09-20T16:01:20.009Z,6.55
2018-09-20T16:03:48.966Z,6.03
2018-09-20T16:06:17.904Z,5.75
2018-09-20T16:08:46.817Z,6.15
2018-09-20T16:11:15.746Z,6.97
2018-09-20T16:13:44.621Z,7.15
2018-09-20T16:16:13.465Z,8.93
2018-09-20T16:18:42.324Z,8.50
2018-09-20T16:21:11.185Z,6.90
2018-09-20T16:23:40.182Z,9.03
2018-09-20T16:26:08.972Z,18.67
2018-09-20T16:28:59.827Z,9.93
2018-09-20T16:32:57.144Z,7.20
2018-09-20T16:36:01.666Z,7.58
2018-09-20T16:38:42.476Z,9.20
2018-09-20T16:41:13.012Z,7.20
2018-09-20T16:43:41.884Z,7.37
2018-09-20T16:46:10.766Z,7.40
2018-09-20T16:48:39.613Z,8.55
2018-09-20T16:51:08.797Z,7.75
2018-09-20T16:53:37.682Z,7.25
2018-09-20T16:56:09.796Z,7.95
2018-09-20T16:58:45.891Z,9.60
2018-09-20T17:01:24.583Z,8.13
2018-09-20T17:03:55.233Z,7.72
2018-09-20T17:06:25.777Z,8.00
2018-09-20T17:08:58.546Z,9.53
2018-09-20T17:11:28.782Z,7.85
2018-09-20T17:13:58.197Z,9.05
2018-09-20T17:16:34.778Z,7.55
2018-09-20T17:19:11.273Z,7.80
2018-09-20T17:21:41.893Z,9.70
2018-09-20T17:24:15.313Z,7.30
2018-09-20T17:26:53.687Z,12.65
2018-09-20T17:29:35.301Z,8.93
2018-09-20T17:32:17.049Z,10.35
2018-09-20T17:34:53.421Z,8.23
2018-09-20T17:37:33.937Z,11.45
2018-09-20T17:40:06.631Z,11.80
2018-09-20T17:45:18.577Z,7.37
2018-09-20T17:47:49.557Z,9.70
2018-09-20T17:50:19.540Z,9.40
2018-09-20T17:52:50.230Z,11.27
2018-09-20T17:55:20.060Z,10.07
2018-09-20T17:57:50.340Z,10.20
2018-09-20T18:00:22.129Z,12.50
2018-09-20T18:02:51.873Z,9.00
2018-09-20T18:05:22.042Z,10.67
2018-09-20T18:07:53.295Z,9.80
2018-09-20T18:10:23.386Z,9.17
2018-09-20T18:12:53.715Z,11.03
2018-09-20T18:15:23.953Z,11.17
2018-09-20T18:17:54.081Z,10.83
2018-09-20T18:20:23.315Z,9.97
2018-09-20T18:22:52.662Z,11.60
2018-09-20T18:25:23.257Z,10.37
2018-09-20T18:27:52.447Z,10.13
2018-09-20T18:30:27.994Z,9.57
2018-09-20T18:32:57.397Z,10.00
2018-09-20T18:35:27.480Z,11.20
2018-09-20T18:37:56.928Z,9.97
2018-09-20T18:40:26.019Z,12.23
2018-09-20T18:42:59.630Z,10.40
2018-09-20T18:45:30.047Z,9.40
2018-09-20T18:51:11.015Z,12.57
2018-09-20T19:07:40.183Z,9.63
2018-09-20T19:10:24.451Z,9.93
2018-09-20T19:32:35.680Z,10.20
2018-09-20T19:46:13.405Z,11.70
2018-09-20T20:03:50.320Z,12.53
2018-09-20T20:06:19.521Z,10.23
2018-09-20T20:08:49.482Z,10.73
2018-09-20T20:11:19.248Z,11.57
2018-09-20T20:13:48.642Z,11.23
2018-09-20T20:16:17.856Z,12.97
2018-09-20T20:18:47.028Z,11.37
2018-09-20T20:21:16.286Z,11.27
2018-09-20T20:23:45.554Z,12.80
2018-09-20T20:26:14.857Z,13.50
2018-09-20T20:29:19.229Z,11.30
2018-09-20T20:32:09.404Z,11.63
2018-09-20T20:35:34.001Z,9.80
2018-09-20T20:38:44.144Z,11.23
2018-09-20T20:44:33.117Z,10.80
2018-09-20T20:47:13.354Z,12.90
2018-09-20T20:50:00.673Z,13.00
2018-09-20T20:52:38.421Z,13.13
2018-09-20T20:55:42.434Z,11.07
2018-09-20T20:58:37.241Z,10.53
2018-09-20T21:06:22.094Z,10.67
2018-09-20T21:09:03.874Z,11.63
2018-09-20T21:14:34.828Z,9.30
2018-09-20T21:19:52.249Z,11.97
2018-09-20T21:22:30.011Z,13.97
2018-09-20T21:25:02.429Z,10.47
2018-09-20T21:27:38.717Z,10.63
2018-09-20T21:30:13.545Z,10.30
2018-09-20T21:32:42.525Z,10.73
2018-09-20T21:35:11.381Z,10.37
2018-09-20T21:37:40.364Z,12.77
2018-09-20T21:40:09.324Z,11.63
2018-09-20T21:42:38.204Z,11.63
2018-09-20T21:45:07.098Z,10.23
2018-09-20T21:47:35.976Z,12.10
2018-09-20T21:50:05.060Z,10.60
2018-09-20T21:52:33.918Z,10.90
2018-09-20T21:55:02.752Z,10.60
2018-09-20T21:57:31.709Z,10.60
2018-09-20T22:00:00.541Z,12.13
2018-09-20T22:02:34.691Z,12.57
2018-09-20T22:05:03.535Z,12.07
2018-09-20T22:07:32.549Z,12.13
2018-09-20T22:10:01.377Z,11.90
2018-09-20T22:12:30.280Z,11.47
2018-09-20T22:14:59.157Z,12.27
2018-09-20T22:17:28.041Z,13.17
2018-09-20T22:19:57.041Z,9.97
2018-09-20T22:22:25.923Z,9.90
2018-09-20T22:24:54.768Z,10.23
2018-09-20T22:27:23.684Z,11.43
2018-09-20T22:29:52.597Z,13.03
2018-09-20T22:32:21.597Z,11.43
2018-09-20T22:34:50.479Z,11.43
2018-09-20T22:37:19.357Z,11.77
2018-09-20T22:39:49.152Z,10.33
2018-09-20T22:42:18.072Z,11.67
2018-09-20T22:44:47.094Z,10.50
2018-09-20T22:47:15.917Z,10.27
2018-09-20T22:49:44.796Z,10.50
2018-09-20T22:52:13.660Z,10.93
2018-09-20T22:54:42.561Z,11.63
2018-09-20T22:57:11.665Z,10.10
2018-09-20T22:59:40.520Z,11.00
2018-09-20T23:02:09.379Z,11.03
2018-09-20T23:04:38.294Z,10.53
2018-09-20T23:07:07.555Z,12.67
2018-09-20T23:09:36.549Z,10.53
2018-09-20T23:12:05.480Z,11.37
2018-09-20T23:14:34.561Z,11.10
2018-09-20T23:17:03.472Z,12.87
2018-09-20T23:19:32.389Z,12.17
2018-09-20T23:22:01.268Z,10.33
2018-09-20T23:24:30.112Z,10.60
2018-09-20T23:26:59.085Z,10.97
2018-09-20T23:29:27.970Z,10.70
2018-09-20T23:31:56.832Z,12.47
2018-09-20T23:34:25.725Z,11.17
2018-09-20T23:36:54.639Z,11.47
2018-09-20T23:39:23.570Z,11.20
2018-09-20T23:41:52.452Z,12.93
2018-09-20T23:44:21.488Z,10.73
2018-09-20T23:46:50.344Z,11.17
2018-09-20T23:49:19.227Z,10.23
2018-09-20T23:51:48.161Z,9.90
2018-09-20T23:54:17.050Z,12.73
2018-09-20T23:56:46.005Z,10.03
2018-09-20T23:59:14.876Z,9.87
